createdAt,value
2023-07-03T00:00:30.280Z,22.30
2023-07-03T00:02:58.967Z,27.05
2023-07-03T00:05:27.907Z,21.92
2023-07-03T00:07:56.725Z,28.60
2023-07-03T00:10:27.382Z,23.60
2023-07-03T00:12:57.218Z,26.95
2023-07-03T00:15:25.667Z,22.17
2023-07-03T00:17:55.019Z,24.60
2023-07-03T00:20:23.542Z,27.23
2023-07-03T00:22:52.709Z,22.02
2023-07-03T00:25:21.174Z,22.92
2023-07-03T00:27:51.771Z,26.45
2023-07-03T00:30:20.352Z,28.95
2023-07-03T00:32:49.185Z,28.90
2023-07-03T00:35:18.051Z,24.70
2023-07-03T00:37:47.110Z,27.63
2023-07-03T00:40:16.122Z,19.25
2023-07-03T00:42:44.908Z,23.48
2023-07-03T00:45:14.609Z,26.30
2023-07-03T00:47:43.207Z,26.23
2023-07-03T00:50:12.548Z,29.05
2023-07-03T00:52:43.036Z,25.20
2023-07-03T00:55:15.032Z,25.60
2023-07-03T00:57:43.476Z,27.25
2023-07-03T01:00:14.732Z,26.08
2023-07-03T01:02:53.053Z,27.65
2023-07-03T01:05:27.987Z,24.33
2023-07-03T01:07:59.222Z,22.58
2023-07-03T01:10:30.755Z,22.05
2023-07-03T01:13:02.450Z,22.30
2023-07-03T01:15:36.949Z,25.75
2023-07-03T01:18:09.077Z,25.67
2023-07-03T01:20:42.651Z,27.42
2023-07-03T01:23:18.144Z,21.90
2023-07-03T01:25:51.362Z,21.00
2023-07-03T01:28:24.228Z,23.50
2023-07-03T01:30:56.386Z,21.33
2023-07-03T01:33:30.723Z,33.33
2023-07-03T01:36:01.549Z,26.20
2023-07-03T01:38:33.448Z,24.27
2023-07-03T01:41:04.483Z,22.65
2023-07-03T01:43:33.519Z,26.40
2023-07-03T01:46:02.293Z,30.40
2023-07-03T01:48:34.407Z,21.83
2023-07-03T01:51:04.852Z,22.80
2023-07-03T01:53:38.013Z,25.45
2023-07-03T01:56:12.877Z,22.90
2023-07-03T02:01:18.530Z,26.73
2023-07-03T02:03:53.212Z,26.55
2023-07-03T02:06:30.705Z,27.00
2023-07-03T02:08:59.746Z,23.33
2023-07-03T02:11:30.892Z,22.85
2023-07-03T02:14:01.138Z,28.25
2023-07-03T02:16:32.488Z,24.42
2023-07-03T02:19:02.246Z,27.95
2023-07-03T02:21:31.195Z,23.77
2023-07-03T02:23:59.844Z,20.45
2023-07-03T02:26:29.561Z,24.40
2023-07-03T02:28:58.733Z,23.95
2023-07-03T02:31:29.775Z,24.73
2023-07-03T02:33:58.224Z,22.15
2023-07-03T02:36:30.614Z,25.10
2023-07-03T02:39:00.317Z,21.98
2023-07-03T02:41:30.712Z,25.42
2023-07-03T02:43:59.138Z,23.63
2023-07-03T02:46:31.127Z,26.23
2023-07-03T02:48:59.613Z,21.90
2023-07-03T02:51:28.014Z,24.63
2023-07-03T02:54:00.357Z,24.35
2023-07-03T02:56:31.815Z,22.60
2023-07-03T02:59:00.747Z,26.05
2023-07-03T03:01:33.998Z,22.83
2023-07-03T03:04:06.004Z,26.05
2023-07-03T03:06:35.371Z,24.90
2023-07-03T03:09:03.966Z,18.20
2023-07-03T03:11:35.862Z,26.55
2023-07-03T03:14:04.687Z,23.27
2023-07-03T03:16:34.885Z,26.52
2023-07-03T03:19:03.645Z,24.73
2023-07-03T03:21:32.072Z,26.40
2023-07-03T03:24:00.721Z,21.33
2023-07-03T03:26:29.289Z,23.63
2023-07-03T03:28:59.767Z,21.48
2023-07-03T03:31:30.469Z,24.60
2023-07-03T03:34:03.435Z,25.70
2023-07-03T03:36:34.539Z,26.92
2023-07-03T03:39:05.704Z,24.92
2023-07-03T03:41:34.612Z,27.90
2023-07-03T03:44:05.929Z,24.50
2023-07-03T03:46:35.631Z,23.52
2023-07-03T03:49:05.257Z,24.15
2023-07-03T03:51:36.194Z,30.90
2023-07-03T03:54:05.617Z,26.35
2023-07-03T03:56:37.782Z,21.75
2023-07-03T03:59:08.590Z,24.15
2023-07-03T04:01:37.229Z,23.92
2023-07-03T04:04:06.192Z,24.10
2023-07-03T04:06:36.464Z,23.75
2023-07-03T04:09:05.230Z,29.08
2023-07-03T04:11:34.016Z,24.02
2023-07-03T04:14:03.026Z,24.83
2023-07-03T04:16:34.425Z,25.48
2023-07-03T04:19:03.931Z,25.52
2023-07-03T04:21:32.368Z,22.95
2023-07-03T04:24:00.644Z,23.10
2023-07-03T04:26:28.973Z,25.90
2023-07-03T04:28:57.304Z,18.55
2023-07-03T04:31:25.912Z,25.02
2023-07-03T04:33:56.162Z,27.60
2023-07-03T04:36:24.796Z,21.15
2023-07-03T04:38:58.476Z,28.08
2023-07-03T04:41:28.284Z,28.35
2023-07-03T04:43:58.341Z,27.52
2023-07-03T04:46:29.883Z,22.48
2023-07-03T04:49:01.728Z,24.52
2023-07-03T04:51:31.956Z,28.63
2023-07-03T04:54:04.674Z,18.83
2023-07-03T04:56:35.385Z,25.52
2023-07-03T04:59:04.468Z,20.70
2023-07-03T05:01:33.298Z,20.63
2023-07-03T05:04:03.421Z,25.08
2023-07-03T05:06:32.432Z,23.40
2023-07-03T05:09:01.341Z,20.90
2023-07-03T05:11:30.618Z,21.10
2023-07-03T05:13:59.388Z,24.67
2023-07-03T05:16:28.276Z,22.67
2023-07-03T05:18:56.738Z,21.27
2023-07-03T05:21:27.590Z,24.40
2023-07-03T05:23:56.218Z,16.02
2023-07-03T05:26:25.681Z,18.88
2023-07-03T05:28:54.793Z,21.17
2023-07-03T05:31:24.578Z,22.40
2023-07-03T05:33:53.315Z,19.75
2023-07-03T05:36:21.911Z,20.52
2023-07-03T05:38:51.940Z,20.27
2023-07-03T05:41:20.800Z,21.75
2023-07-03T05:43:49.805Z,19.90
2023-07-03T05:46:19.630Z,22.70
2023-07-03T05:48:49.007Z,16.38
2023-07-03T05:51:17.216Z,18.58
2023-07-03T05:53:46.333Z,21.63
2023-07-03T05:56:16.781Z,22.55
2023-07-03T05:58:45.733Z,20.42
2023-07-03T06:01:14.814Z,20.58
2023-07-03T06:03:44.862Z,22.60
2023-07-03T06:06:14.178Z,20.42
2023-07-03T06:08:43.513Z,23.90
2023-07-03T06:11:12.279Z,18.73
2023-07-03T06:13:42.430Z,20.98
2023-07-03T06:16:11.064Z,19.58
2023-07-03T06:18:40.922Z,17.35
2023-07-03T06:21:09.411Z,18.35
2023-07-03T06:23:40.165Z,18.88
2023-07-03T06:26:08.402Z,16.75
2023-07-03T06:28:37.523Z,18.80
2023-07-03T06:31:08.015Z,19.40
2023-07-03T06:33:36.583Z,18.88
2023-07-03T06:36:06.253Z,17.55
2023-07-03T06:38:34.683Z,22.67
2023-07-03T06:41:03.306Z,14.73
2023-07-03T06:43:31.711Z,19.63
2023-07-03T06:46:01.123Z,18.88
2023-07-03T06:48:31.042Z,23.67
2023-07-03T06:51:07.354Z,17.17
2023-07-03T06:53:36.011Z,20.95
2023-07-03T06:56:05.862Z,12.80
2023-07-03T06:58:35.503Z,15.38
2023-07-03T07:01:08.921Z,16.40
2023-07-03T07:03:40.242Z,17.30
2023-07-03T07:06:15.018Z,17.42
2023-07-03T07:08:45.188Z,24.38
2023-07-03T07:11:15.817Z,18.75
2023-07-03T07:13:47.821Z,36.67
2023-07-03T07:16:19.462Z,37.97
2023-07-03T07:18:57.767Z,33.42
2023-07-03T07:21:26.636Z,20.50
2023-07-03T07:23:57.283Z,24.30
2023-07-03T07:26:30.075Z,13.82
2023-07-03T07:28:58.534Z,16.15
2023-07-03T07:31:30.065Z,13.43
2023-07-03T07:34:00.715Z,31.55
2023-07-03T07:36:30.115Z,25.35
2023-07-03T07:39:01.284Z,13.32
2023-07-03T07:41:30.708Z,15.57
2023-07-03T07:44:00.995Z,17.48
2023-07-03T07:46:32.470Z,14.82
2023-07-03T07:49:03.379Z,14.45
2023-07-03T07:51:33.498Z,11.35
2023-07-03T07:54:03.660Z,11.32
2023-07-03T07:56:34.422Z,11.65
2023-07-03T07:59:03.385Z,21.45
2023-07-03T08:01:32.002Z,19.55
2023-07-03T08:04:01.694Z,11.73
2023-07-03T08:06:30.110Z,11.57
2023-07-03T08:08:58.685Z,13.63
2023-07-03T08:11:29.916Z,10.93
2023-07-03T08:14:00.859Z,8.77
2023-07-03T08:16:29.871Z,11.35
2023-07-03T08:18:58.429Z,13.20
2023-07-03T08:21:28.234Z,20.52
2023-07-03T08:23:59.577Z,25.80
2023-07-03T08:26:28.266Z,6.88
2023-07-03T08:28:56.746Z,11.95
2023-07-03T08:31:25.372Z,9.77
2023-07-03T08:33:56.408Z,12.38
2023-07-03T08:39:00.059Z,6.47
2023-07-03T08:41:28.546Z,11.38
2023-07-03T08:44:01.239Z,18.67
2023-07-03T08:46:33.915Z,10.57
2023-07-03T08:49:05.570Z,7.60
2023-07-03T08:51:39.232Z,7.45
2023-07-03T08:54:17.987Z,9.70
2023-07-03T08:56:46.782Z,8.75
2023-07-03T08:59:15.268Z,7.68
2023-07-03T09:01:49.755Z,6.80
2023-07-03T09:04:40.773Z,8.85
2023-07-03T09:07:13.252Z,9.32
2023-07-03T09:09:50.922Z,11.02
2023-07-03T09:12:26.846Z,13.63
2023-07-03T09:15:01.639Z,9.38
2023-07-03T09:17:31.829Z,8.73
2023-07-03T09:20:00.973Z,8.20
2023-07-03T09:22:36.641Z,9.73
2023-07-03T09:25:11.371Z,9.10
2023-07-03T09:30:11.303Z,12.50
2023-07-03T09:32:41.162Z,11.43
2023-07-03T09:35:14.724Z,9.95
2023-07-03T09:37:46.210Z,13.85
2023-07-03T09:40:24.852Z,10.35
2023-07-03T09:42:53.702Z,9.35
2023-07-03T09:45:24.087Z,6.75
2023-07-03T09:47:57.602Z,6.90
2023-07-03T09:50:28.813Z,10.60
2023-07-03T09:53:08.162Z,10.82
2023-07-03T09:55:39.271Z,7.20
2023-07-03T09:58:15.602Z,16.80
2023-07-03T10:00:50.163Z,9.80
2023-07-03T10:08:49.710Z,9.77
2023-07-03T10:11:27.364Z,6.40
2023-07-03T10:13:57.268Z,10.63
2023-07-03T10:16:27.673Z,7.53
2023-07-03T10:19:00.567Z,10.02
2023-07-03T10:21:30.597Z,7.72
2023-07-03T10:24:03.493Z,10.68
2023-07-03T10:26:39.910Z,8.20
2023-07-03T10:29:14.899Z,5.65
2023-07-03T10:31:49.961Z,9.57
2023-07-03T10:36:57.317Z,8.88
2023-07-03T10:39:34.111Z,11.70
2023-07-03T10:42:11.096Z,6.30
2023-07-03T10:44:42.215Z,7.03
2023-07-03T10:47:19.829Z,6.15
2023-07-03T10:49:49.000Z,12.13
2023-07-03T10:52:31.292Z,7.80
2023-07-03T10:55:12.735Z,14.23
2023-07-03T10:57:51.225Z,8.95
2023-07-03T11:00:27.939Z,5.97
2023-07-03T11:03:04.928Z,6.10
2023-07-03T11:05:38.243Z,4.80
2023-07-03T11:08:16.033Z,6.05
2023-07-03T11:10:50.994Z,7.70
2023-07-03T11:13:25.973Z,12.27
2023-07-03T11:16:07.139Z,6.25
2023-07-03T11:24:14.204Z,3.78
2023-07-03T11:29:17.756Z,12.35
2023-07-03T11:31:56.306Z,7.90
2023-07-03T11:44:50.119Z,7.38
2023-07-03T11:47:25.413Z,5.40
2023-07-03T11:49:59.839Z,9.75
2023-07-03T11:52:30.882Z,7.82
2023-07-03T11:55:04.913Z,12.70
2023-07-03T11:57:36.843Z,5.93
2023-07-03T12:00:23.969Z,6.38
2023-07-03T12:02:58.540Z,6.60
2023-07-03T12:06:00.268Z,4.90
2023-07-03T12:08:46.490Z,5.50
2023-07-03T12:11:16.486Z,5.57
2023-07-03T12:13:53.252Z,5.65
2023-07-03T12:16:30.196Z,5.88
2023-07-03T12:19:06.762Z,8.00
2023-07-03T12:21:44.179Z,9.75
2023-07-03T12:24:25.437Z,10.02
2023-07-03T12:27:01.652Z,8.82
2023-07-03T12:29:31.307Z,4.88
2023-07-03T12:32:06.897Z,6.05
2023-07-03T12:34:36.889Z,7.65
2023-07-03T12:37:08.734Z,8.95
2023-07-03T12:39:38.902Z,11.68
2023-07-03T12:42:14.867Z,7.15
2023-07-03T12:44:43.464Z,5.25
2023-07-03T12:47:16.834Z,7.82
2023-07-03T12:49:57.214Z,8.68
2023-07-03T12:52:29.701Z,7.40
2023-07-03T12:55:13.883Z,7.80
2023-07-03T12:57:46.165Z,3.90
2023-07-03T13:00:25.661Z,9.35
2023-07-03T13:02:59.492Z,8.10
2023-07-03T13:05:29.430Z,5.53
2023-07-03T13:07:58.335Z,8.75
2023-07-03T13:10:27.308Z,17.33
2023-07-03T13:13:08.350Z,9.77
2023-07-03T13:15:40.469Z,4.93
2023-07-03T13:18:19.528Z,5.60
2023-07-03T13:20:59.544Z,7.30
2023-07-03T13:23:33.574Z,9.35
2023-07-03T13:26:03.566Z,7.13
2023-07-03T13:28:35.111Z,7.88
2023-07-03T13:31:13.358Z,5.53
2023-07-03T13:33:45.599Z,7.05
2023-07-03T13:36:25.230Z,7.57
2023-07-03T13:39:09.652Z,9.30
2023-07-03T13:41:40.129Z,6.28
2023-07-03T13:44:10.133Z,5.97
2023-07-03T13:46:40.615Z,3.83
2023-07-03T13:49:11.530Z,3.13
2023-07-03T13:51:40.785Z,6.90
2023-07-03T13:54:13.116Z,6.50
2023-07-03T13:56:42.389Z,7.43
2023-07-03T13:59:11.467Z,7.18
2023-07-03T14:01:41.862Z,8.63
2023-07-03T14:04:12.594Z,7.38
2023-07-03T14:06:41.294Z,11.38
2023-07-03T14:09:11.131Z,6.05
2023-07-03T14:11:40.759Z,4.00
2023-07-03T14:14:12.848Z,8.50
2023-07-03T14:16:41.463Z,4.68
2023-07-03T14:19:11.627Z,4.97
2023-07-03T14:21:41.048Z,7.32
2023-07-03T14:24:10.509Z,6.30
2023-07-03T14:26:39.279Z,6.63
2023-07-03T14:29:07.918Z,4.88
2023-07-03T14:31:37.320Z,5.13
2023-07-03T14:34:07.745Z,5.97
2023-07-03T14:36:37.966Z,7.18
2023-07-03T14:39:07.029Z,4.13
2023-07-03T14:41:35.493Z,6.15
2023-07-03T14:44:05.346Z,8.25
2023-07-03T14:46:34.106Z,7.43
2023-07-03T14:49:03.007Z,6.25
2023-07-03T14:51:31.976Z,3.75
2023-07-03T14:54:02.408Z,9.82
2023-07-03T14:56:30.959Z,6.97
2023-07-03T14:58:59.301Z,6.97
2023-07-03T15:01:29.254Z,5.53
2023-07-03T15:03:59.114Z,5.30
2023-07-03T15:06:28.026Z,8.15
2023-07-03T15:08:56.694Z,7.72
2023-07-03T15:11:26.419Z,8.70
2023-07-03T15:13:55.373Z,7.35
2023-07-03T15:16:29.119Z,12.07
2023-07-03T15:19:01.894Z,6.15
2023-07-03T15:21:30.827Z,6.82
2023-07-03T15:23:59.348Z,11.02
2023-07-03T15:26:31.653Z,6.75
2023-07-03T15:29:00.998Z,4.88
2023-07-03T15:31:29.335Z,6.05
2023-07-03T15:33:58.395Z,4.47
2023-07-03T15:36:27.253Z,9.32
2023-07-03T15:38:56.232Z,7.78
2023-07-03T15:41:24.614Z,7.13
2023-07-03T15:43:54.298Z,7.68
2023-07-03T15:46:22.685Z,10.02
2023-07-03T15:48:52.319Z,12.00
2023-07-03T15:51:21.082Z,5.22
2023-07-03T15:53:49.628Z,7.18
2023-07-03T15:56:19.794Z,6.63
2023-07-03T15:58:55.506Z,7.30
2023-07-03T16:01:26.044Z,5.38
2023-07-03T16:03:56.900Z,5.20
2023-07-03T16:06:27.017Z,6.82
2023-07-03T16:09:01.145Z,6.95
2023-07-03T16:11:31.332Z,5.10
2023-07-03T16:14:01.113Z,4.60
2023-07-03T16:16:33.539Z,4.00
2023-07-03T16:19:05.477Z,5.70
2023-07-03T16:21:37.225Z,7.15
2023-07-03T16:24:10.131Z,5.43
2023-07-03T16:26:38.452Z,4.47
2023-07-03T16:29:10.065Z,4.05
2023-07-03T16:31:40.824Z,7.28
2023-07-03T16:34:11.394Z,6.32
2023-07-03T16:36:42.048Z,3.42
2023-07-03T16:39:11.582Z,5.55
2023-07-03T16:41:41.976Z,5.88
2023-07-03T16:44:11.969Z,5.80
2023-07-03T16:46:40.995Z,6.40
2023-07-03T16:49:09.911Z,4.75
2023-07-03T16:51:38.474Z,1.90
2023-07-03T16:54:11.278Z,4.35
2023-07-03T16:56:53.534Z,4.20
2023-07-03T16:59:24.656Z,3.08
2023-07-03T17:01:56.194Z,4.53
2023-07-03T17:04:25.047Z,2.95
2023-07-03T17:06:53.442Z,3.67
2023-07-03T17:09:22.573Z,4.55
2023-07-03T17:11:52.233Z,3.08
2023-07-03T17:14:20.902Z,2.90
2023-07-03T17:16:51.556Z,3.88
2023-07-03T17:19:20.084Z,2.28
2023-07-03T17:21:48.586Z,1.85
2023-07-03T17:24:18.398Z,3.13
2023-07-03T17:26:47.488Z,4.50
2023-07-03T17:29:15.672Z,4.80
2023-07-03T17:31:44.321Z,4.32
2023-07-03T17:34:16.070Z,5.78
2023-07-03T17:36:49.664Z,4.10
2023-07-03T17:39:20.100Z,2.20
2023-07-03T17:41:51.174Z,4.55
2023-07-03T17:44:23.930Z,3.33
2023-07-03T17:46:54.424Z,4.28
2023-07-03T17:49:29.490Z,3.42
2023-07-03T17:51:59.839Z,2.42
2023-07-03T17:54:28.886Z,4.90
2023-07-03T17:57:00.342Z,2.15
2023-07-03T17:59:29.612Z,3.08
2023-07-03T18:01:59.054Z,2.70
2023-07-03T18:04:36.355Z,3.67
2023-07-03T18:07:05.798Z,4.20
2023-07-03T18:09:39.892Z,4.35
2023-07-03T18:12:11.270Z,3.70
2023-07-03T18:14:41.463Z,2.03
2023-07-03T18:17:15.981Z,3.58
2023-07-03T18:19:48.608Z,3.47
2023-07-03T18:22:17.043Z,3.85
2023-07-03T18:24:46.848Z,3.42
2023-07-03T18:27:14.965Z,1.48
2023-07-03T18:29:44.141Z,2.13
2023-07-03T18:32:14.722Z,1.95
2023-07-03T18:34:48.156Z,3.08
2023-07-03T18:37:21.828Z,2.33
2023-07-03T18:39:56.504Z,2.58
2023-07-03T18:42:31.587Z,3.85
2023-07-03T18:45:00.559Z,2.03
2023-07-03T18:47:31.341Z,3.75
2023-07-03T18:50:01.134Z,3.83
2023-07-03T18:52:31.074Z,3.03
2023-07-03T18:55:00.118Z,2.72
2023-07-03T18:57:29.895Z,5.28
2023-07-03T19:00:00.418Z,2.40
2023-07-03T19:02:29.671Z,3.72
2023-07-03T19:04:58.977Z,2.53
2023-07-03T19:07:27.840Z,2.80
2023-07-03T19:10:08.153Z,3.80
2023-07-03T19:12:45.950Z,2.80
2023-07-03T19:15:14.916Z,2.13
2023-07-03T19:17:44.006Z,4.13
2023-07-03T19:20:15.540Z,2.72
2023-07-03T19:22:44.194Z,5.78
2023-07-03T19:25:21.313Z,2.88
2023-07-03T19:27:49.968Z,3.35
2023-07-03T19:30:18.817Z,3.47
2023-07-03T19:32:47.096Z,1.77
2023-07-03T19:35:15.824Z,2.95
2023-07-03T19:37:44.290Z,4.25
2023-07-03T19:40:14.520Z,4.10
2023-07-03T19:42:44.255Z,3.28
2023-07-03T19:45:13.137Z,4.03
2023-07-03T19:47:42.616Z,3.47
2023-07-03T19:50:12.759Z,6.13
2023-07-03T19:52:41.358Z,4.63
2023-07-03T19:55:10.462Z,3.63
2023-07-03T19:57:42.093Z,3.22
2023-07-03T20:00:14.162Z,5.45
2023-07-03T20:02:46.841Z,5.53
2023-07-03T20:05:16.749Z,3.30
2023-07-03T20:07:45.180Z,3.83
2023-07-03T20:10:15.108Z,2.92
2023-07-03T20:12:44.967Z,3.65
2023-07-03T20:15:13.938Z,3.13
2023-07-03T20:17:42.734Z,4.05
2023-07-03T20:20:11.910Z,3.90
2023-07-03T20:22:40.492Z,3.30
2023-07-03T20:25:10.949Z,4.15
2023-07-03T20:27:40.611Z,4.88
2023-07-03T20:30:11.829Z,3.15
2023-07-03T20:32:40.629Z,3.88
2023-07-03T20:35:11.548Z,4.45
2023-07-03T20:37:40.465Z,5.18
2023-07-03T20:40:11.134Z,5.32
2023-07-03T20:42:39.728Z,4.15
2023-07-03T20:45:11.551Z,4.85
2023-07-03T20:47:40.524Z,2.75
2023-07-03T20:50:13.253Z,2.75
2023-07-03T20:52:42.090Z,3.38
2023-07-03T20:55:24.024Z,5.85
2023-07-03T20:57:53.103Z,2.33
2023-07-03T21:00:25.679Z,5.07
2023-07-03T21:02:54.946Z,2.33
2023-07-03T21:05:23.686Z,4.35
2023-07-03T21:07:52.158Z,4.75
2023-07-03T21:10:20.881Z,3.92
2023-07-03T21:12:49.441Z,4.80
2023-07-03T21:15:18.247Z,3.88
2023-07-03T21:17:48.879Z,4.88
2023-07-03T21:20:18.318Z,3.22
2023-07-03T21:22:46.831Z,5.00
2023-07-03T21:25:15.429Z,5.85
2023-07-03T21:27:45.246Z,2.70
2023-07-03T21:30:15.183Z,4.03
2023-07-03T21:32:44.092Z,6.80
2023-07-03T21:35:14.110Z,4.53
2023-07-03T21:37:42.333Z,3.95
2023-07-03T21:40:12.046Z,4.85
2023-07-03T21:42:54.454Z,8.07
2023-07-03T21:45:22.960Z,5.00
2023-07-03T21:47:51.920Z,4.05
2023-07-03T21:50:23.998Z,5.50
2023-07-03T21:52:54.469Z,2.88
2023-07-03T21:55:23.610Z,4.30
2023-07-03T21:57:56.189Z,8.75
2023-07-03T22:00:24.827Z,4.82
2023-07-03T22:02:54.591Z,5.00
2023-07-03T22:05:24.606Z,4.88
2023-07-03T22:07:53.059Z,4.93
2023-07-03T22:10:23.680Z,4.88
2023-07-03T22:12:54.196Z,5.70
2023-07-03T22:15:23.231Z,5.45
2023-07-03T22:17:52.054Z,5.10
2023-07-03T22:20:20.801Z,7.75
2023-07-03T22:22:52.570Z,4.45
2023-07-03T22:25:23.480Z,4.90
2023-07-03T22:27:52.737Z,5.10
2023-07-03T22:30:21.536Z,4.43
2023-07-03T22:32:50.207Z,6.95
2023-07-03T22:35:19.356Z,4.28
2023-07-03T22:37:48.137Z,4.95
2023-07-03T22:40:18.088Z,4.68
2023-07-03T22:42:47.987Z,5.22
2023-07-03T22:45:17.108Z,4.32
2023-07-03T22:47:46.004Z,6.35
2023-07-03T22:50:14.880Z,5.05
2023-07-03T22:52:43.439Z,3.80
2023-07-03T22:55:12.206Z,3.53
2023-07-03T22:57:42.127Z,5.15
2023-07-03T23:00:12.128Z,5.75
2023-07-03T23:02:41.705Z,6.55
2023-07-03T23:05:12.238Z,6.30
2023-07-03T23:07:41.686Z,6.00
2023-07-03T23:10:11.077Z,5.15
2023-07-03T23:12:39.485Z,6.95
2023-07-03T23:15:10.989Z,6.03
2023-07-03T23:17:39.479Z,10.90
2023-07-03T23:20:12.741Z,7.30
2023-07-03T23:22:42.817Z,7.32
2023-07-03T23:25:11.902Z,5.75
2023-07-03T23:27:40.383Z,6.15
2023-07-03T23:30:12.664Z,7.88
2023-07-03T23:32:41.148Z,4.88
2023-07-03T23:35:12.260Z,5.85
2023-07-03T23:37:45.258Z,7.72
2023-07-03T23:40:15.787Z,5.25
2023-07-03T23:42:44.842Z,5.95
2023-07-03T23:45:15.082Z,5.63
2023-07-03T23:47:43.458Z,6.18
2023-07-03T23:50:14.845Z,5.90
2023-07-03T23:52:47.168Z,6.35
2023-07-03T23:55:17.523Z,5.90
2023-07-03T23:57:45.922Z,5.50
